Time;durP1;ratioP1;P1;durP2;ratioP2;P2;SDS_P1;SDS_P2;PMS_P1;PMS_P2;Temp;Humidity;BMP_temperature;BMP_pressure;BME280_temperature;BME280_humidity;BME280_pressure;Samples;Min_cycle;Max_cycle;Signal;HPM_P1;HPM_P2
2022/01/17 00:01:20;;;;;;;0.00;0.00;;;;;;;;;;5055401;28;20222;-68
2022/01/17 00:03:48;;;;;;;0.00;0.00;;;;;;;;;;5062962;28;20207;-68
2022/01/17 00:06:15;;;;;;;0.00;0.00;;;;;;;;;;5070645;28;20195;-68
2022/01/17 00:08:44;;;;;;;0.03;0.03;;;;;;;;;;5071891;28;20681;-67
2022/01/17 00:11:14;;;;;;;0.30;0.30;;;;;;;;;;5070371;28;20238;-68
2022/01/17 00:13:42;;;;;;;0.30;0.30;;;;;;;;;;5083635;28;20669;-67
2022/01/17 00:16:13;;;;;;;0.30;0.30;;;;;;;;;;5074672;28;20204;-68
2022/01/17 00:19:17;;;;;;;0.00;0.00;;;;;;;;;;5072007;28;20345;-67
2022/01/17 00:21:44;;;;;;;0.00;0.00;;;;;;;;;;5051318;28;20221;-66
2022/01/17 00:24:13;;;;;;;0.30;0.30;;;;;;;;;;5067777;28;20758;-67
2022/01/17 00:26:41;;;;;;;0.00;0.00;;;;;;;;;;5060546;28;20200;-67
2022/01/17 00:29:08;;;;;;;0.00;0.00;;;;;;;;;;5061231;28;20206;-68
2022/01/17 00:31:36;;;;;;;0.13;0.13;;;;;;;;;;5070589;28;20200;-67
2022/01/17 00:34:03;;;;;;;0.00;0.00;;;;;;;;;;5052743;28;20257;-67
2022/01/17 00:36:31;;;;;;;0.83;0.83;;;;;;;;;;5050168;28;20202;-67
2022/01/17 00:38:58;;;;;;;0.33;0.33;;;;;;;;;;5051178;28;20707;-67
2022/01/17 00:41:27;;;;;;;0.77;0.77;;;;;;;;;;5050367;28;20206;-67
2022/01/17 00:43:55;;;;;;;1.13;1.13;;;;;;;;;;5048917;28;20282;-67
2022/01/17 00:46:22;;;;;;;0.00;0.00;;;;;;;;;;5057559;28;20191;-67
2022/01/17 00:48:51;;;;;;;0.00;0.00;;;;;;;;;;5059301;28;20195;-67
2022/01/17 00:51:18;;;;;;;0.00;0.00;;;;;;;;;;5053950;28;20199;-66
2022/01/17 00:53:46;;;;;;;0.00;0.00;;;;;;;;;;5053838;28;20207;-66
2022/01/17 00:56:13;;;;;;;0.23;0.23;;;;;;;;;;5059262;28;20238;-67
2022/01/17 00:58:42;;;;;;;0.30;0.30;;;;;;;;;;5061765;28;20226;-67
2022/01/17 01:01:09;;;;;;;0.27;0.27;;;;;;;;;;5074932;28;20695;-67
2022/01/17 01:03:37;;;;;;;0.10;0.10;;;;;;;;;;5062511;28;20199;-67
2022/01/17 01:06:05;;;;;;;0.00;0.00;;;;;;;;;;5066616;28;20898;-66
2022/01/17 01:08:33;;;;;;;0.00;0.00;;;;;;;;;;5055144;28;20199;-66
2022/01/17 01:11:00;;;;;;;0.00;0.00;;;;;;;;;;5065052;28;20196;-67
2022/01/17 01:13:30;;;;;;;0.30;0.30;;;;;;;;;;5069529;28;20203;-67
2022/01/17 01:16:10;;;;;;;0.00;0.00;;;;;;;;;;5061915;28;20683;-67
2022/01/17 01:19:05;;;;;;;0.00;0.00;;;;;;;;;;5059854;28;20227;-67
2022/01/17 01:29:49;;;;;;;0.07;0.07;;;;;;;;;;5049635;28;20676;-66
2022/01/17 01:32:22;;;;;;;1.03;1.03;;;;;;;;;;5058272;28;20652;-66
2022/01/17 01:34:53;;;;;;;0.40;0.40;;;;;;;;;;5050151;28;20204;-67
2022/01/17 01:37:21;;;;;;;0.47;0.47;;;;;;;;;;5067478;28;20207;-66
2022/01/17 01:39:50;;;;;;;0.30;0.30;;;;;;;;;;5070324;28;20195;-67
2022/01/17 01:42:19;;;;;;;0.00;0.00;;;;;;;;;;5067376;28;20668;-67
2022/01/17 01:44:50;;;;;;;0.00;0.00;;;;;;;;;;5066173;28;20283;-67
2022/01/17 01:47:21;;;;;;;0.00;0.00;;;;;;;;;;5059585;28;20198;-67
2022/01/17 01:49:48;;;;;;;0.00;0.00;;;;;;;;;;5049670;28;20206;-67
2022/01/17 01:52:16;;;;;;;0.00;0.00;;;;;;;;;;5058547;28;22306;-67
2022/01/17 01:54:43;;;;;;;0.63;0.63;;;;;;;;;;5068783;28;20199;-67
2022/01/17 01:57:11;;;;;;;0.73;0.73;;;;;;;;;;5066965;28;20233;-67
2022/01/17 01:59:39;;;;;;;0.00;0.00;;;;;;;;;;5063935;28;20787;-67
2022/01/17 02:02:06;;;;;;;0.10;0.10;;;;;;;;;;5059223;28;20226;-67
2022/01/17 02:04:35;;;;;;;0.00;0.00;;;;;;;;;;5069114;28;20210;-67
2022/01/17 02:07:03;;;;;;;0.23;0.23;;;;;;;;;;5068561;28;20274;-67
2022/01/17 02:09:30;;;;;;;1.50;0.23;;;;;;;;;;5049221;28;20204;-68
2022/01/17 02:11:58;;;;;;;0.00;0.00;;;;;;;;;;5062428;28;20194;-67
2022/01/17 02:14:25;;;;;;;0.00;0.00;;;;;;;;;;5066751;28;20203;-67
2022/01/17 02:16:52;;;;;;;0.00;0.00;;;;;;;;;;5056283;28;20560;-67
2022/01/17 02:19:24;;;;;;;0.20;0.20;;;;;;;;;;5061857;28;20224;-67
2022/01/17 02:21:53;;;;;;;0.13;0.13;;;;;;;;;;5049435;28;20199;-66
2022/01/17 02:24:21;;;;;;;0.10;0.10;;;;;;;;;;5052427;28;20580;-67
2022/01/17 02:26:50;;;;;;;0.00;0.00;;;;;;;;;;5049102;28;20727;-67
2022/01/17 02:29:17;;;;;;;0.60;0.60;;;;;;;;;;5060797;28;20207;-67
2022/01/17 02:31:47;;;;;;;0.10;0.10;;;;;;;;;;5050105;28;20210;-68
2022/01/17 02:34:14;;;;;;;0.53;0.53;;;;;;;;;;5053566;28;20196;-67
2022/01/17 02:36:41;;;;;;;0.20;0.20;;;;;;;;;;5056042;28;20560;-67
2022/01/17 02:39:10;;;;;;;0.00;0.00;;;;;;;;;;5066145;28;20913;-67
2022/01/17 02:41:40;;;;;;;0.27;0.27;;;;;;;;;;5061932;28;20199;-67
2022/01/17 02:44:08;;;;;;;0.50;0.50;;;;;;;;;;5058754;28;20244;-67
2022/01/17 02:46:35;;;;;;;0.97;0.30;;;;;;;;;;5070627;28;20248;-67
2022/01/17 02:49:04;;;;;;;0.00;0.00;;;;;;;;;;5073131;28;20205;-67
2022/01/17 02:51:32;;;;;;;0.00;0.00;;;;;;;;;;5063295;28;20195;-67
2022/01/17 02:54:00;;;;;;;0.00;0.00;;;;;;;;;;5058160;28;20198;-68
2022/01/17 02:56:28;;;;;;;0.03;0.03;;;;;;;;;;5056041;28;20225;-66
2022/01/17 02:58:56;;;;;;;0.03;0.03;;;;;;;;;;5053654;28;20233;-69
2022/01/17 03:01:25;;;;;;;0.00;0.00;;;;;;;;;;5051605;28;20295;-67
2022/01/17 03:03:53;;;;;;;0.00;0.00;;;;;;;;;;5064076;28;20210;-67
2022/01/17 03:06:20;;;;;;;0.00;0.00;;;;;;;;;;5048755;28;20191;-68
2022/01/17 03:08:48;;;;;;;0.10;0.10;;;;;;;;;;5055782;28;20244;-68
2022/01/17 03:11:16;;;;;;;0.47;0.47;;;;;;;;;;5077709;28;20190;-67
2022/01/17 03:13:47;;;;;;;0.00;0.00;;;;;;;;;;5054495;28;20565;-68
2022/01/17 03:16:16;;;;;;;0.00;0.00;;;;;;;;;;5055500;28;20215;-67
2022/01/17 03:18:44;;;;;;;0.00;0.00;;;;;;;;;;5055519;28;20722;-67
2022/01/17 03:21:13;;;;;;;0.00;0.00;;;;;;;;;;5056987;28;20207;-67
2022/01/17 03:23:41;;;;;;;0.33;0.33;;;;;;;;;;5062103;28;20199;-67
2022/01/17 03:26:08;;;;;;;0.03;0.03;;;;;;;;;;5066756;28;20696;-67
2022/01/17 03:28:36;;;;;;;0.33;0.33;;;;;;;;;;5053494;28;20214;-67
2022/01/17 03:31:06;;;;;;;0.00;0.00;;;;;;;;;;5053912;28;20641;-67
2022/01/17 03:33:33;;;;;;;0.00;0.00;;;;;;;;;;5071554;28;20230;-67
2022/01/17 03:36:01;;;;;;;0.00;0.00;;;;;;;;;;5072719;28;20210;-68
2022/01/17 03:38:29;;;;;;;0.20;0.20;;;;;;;;;;5072312;28;20226;-67
2022/01/17 03:40:58;;;;;;;0.00;0.00;;;;;;;;;;5057420;28;20198;-66
2022/01/17 03:43:26;;;;;;;0.00;0.00;;;;;;;;;;5061531;28;20202;-67
2022/01/17 03:45:57;;;;;;;0.30;0.30;;;;;;;;;;5063860;28;20199;-67
2022/01/17 03:48:26;;;;;;;0.77;0.40;;;;;;;;;;5056756;28;20683;-67
2022/01/17 03:50:55;;;;;;;0.00;0.00;;;;;;;;;;5058113;28;20199;-67
2022/01/17 03:53:23;;;;;;;0.00;0.00;;;;;;;;;;5070013;28;20578;-67
2022/01/17 03:55:50;;;;;;;0.10;0.10;;;;;;;;;;5060432;28;20254;-67
2022/01/17 03:58:18;;;;;;;0.00;0.00;;;;;;;;;;5052288;28;20591;-68
2022/01/17 04:00:47;;;;;;;0.00;0.00;;;;;;;;;;5056249;28;20656;-68
2022/01/17 04:03:14;;;;;;;0.10;0.10;;;;;;;;;;5068650;28;20677;-67
2022/01/17 04:05:43;;;;;;;3.60;0.97;;;;;;;;;;5058083;28;20207;-67
2022/01/17 04:08:11;;;;;;;0.20;0.20;;;;;;;;;;5058910;28;20200;-67
2022/01/17 04:10:39;;;;;;;0.50;0.40;;;;;;;;;;5062038;28;20604;-68
2022/01/17 04:13:06;;;;;;;0.77;0.77;;;;;;;;;;5060496;28;20567;-67
2022/01/17 04:15:35;;;;;;;0.37;0.37;;;;;;;;;;5063032;28;20203;-68
2022/01/17 04:18:03;;;;;;;0.20;0.20;;;;;;;;;;5052443;28;20618;-67
2022/01/17 04:20:31;;;;;;;0.37;0.37;;;;;;;;;;5055971;28;20236;-66
2022/01/17 04:23:02;;;;;;;2.87;0.73;;;;;;;;;;5064545;28;20204;-66
2022/01/17 04:25:31;;;;;;;0.57;0.53;;;;;;;;;;5060595;28;20202;-67
2022/01/17 04:27:59;;;;;;;0.77;0.63;;;;;;;;;;5056687;28;20208;-67
2022/01/17 04:30:26;;;;;;;10.37;5.83;;;;;;;;;;5062130;28;20199;-67
2022/01/17 04:32:54;;;;;;;1.20;0.50;;;;;;;;;;5053652;28;20203;-67
2022/01/17 04:35:22;;;;;;;1.10;1.00;;;;;;;;;;5066260;28;20210;-67
2022/01/17 04:37:51;;;;;;;0.00;0.00;;;;;;;;;;5063415;28;21078;-67
2022/01/17 04:40:20;;;;;;;0.30;0.30;;;;;;;;;;5067091;28;20718;-68
2022/01/17 04:42:49;;;;;;;1.07;0.97;;;;;;;;;;5051055;28;20200;-68
2022/01/17 04:45:19;;;;;;;0.87;0.87;;;;;;;;;;5050815;28;20675;-68
2022/01/17 04:47:47;;;;;;;0.77;0.77;;;;;;;;;;5053408;28;20211;-67
2022/01/17 04:50:16;;;;;;;0.00;0.00;;;;;;;;;;5051338;28;20208;-67
2022/01/17 04:52:43;;;;;;;0.00;0.00;;;;;;;;;;5060710;28;20687;-67
2022/01/17 04:55:13;;;;;;;0.00;0.00;;;;;;;;;;5070163;28;20203;-68
2022/01/17 04:57:42;;;;;;;0.80;0.43;;;;;;;;;;5068752;28;20601;-67
2022/01/17 05:00:11;;;;;;;1.13;1.13;;;;;;;;;;5059802;28;20235;-67
2022/01/17 05:02:39;;;;;;;1.43;1.33;;;;;;;;;;5069635;28;20203;-67
2022/01/17 05:05:06;;;;;;;3.60;2.90;;;;;;;;;;5064532;28;20199;-67
2022/01/17 05:07:34;;;;;;;2.70;1.80;;;;;;;;;;5068930;28;20211;-67
2022/01/17 05:10:01;;;;;;;3.40;2.40;;;;;;;;;;5065435;28;20579;-67
2022/01/17 05:12:29;;;;;;;0.87;0.87;;;;;;;;;;5066955;28;20750;-66
2022/01/17 05:14:59;;;;;;;0.67;0.67;;;;;;;;;;5062511;28;20200;-67
2022/01/17 05:17:44;;;;;;;0.73;0.40;;;;;;;;;;5051368;28;20660;-67
2022/01/17 05:20:12;;;;;;;2.17;1.90;;;;;;;;;;5069367;28;20265;-67
2022/01/17 05:22:41;;;;;;;1.27;1.20;;;;;;;;;;5078751;28;20668;-67
2022/01/17 05:25:10;;;;;;;2.67;1.90;;;;;;;;;;5060642;28;20195;-67
2022/01/17 05:27:38;;;;;;;3.60;1.03;;;;;;;;;;5053817;28;20200;-68
2022/01/17 05:30:09;;;;;;;2.93;2.53;;;;;;;;;;5049980;28;20199;-68
2022/01/17 05:32:36;;;;;;;2.00;1.83;;;;;;;;;;5063340;28;20246;-67
2022/01/17 05:35:05;;;;;;;4.03;1.50;;;;;;;;;;5069179;28;20203;-67
2022/01/17 05:37:32;;;;;;;0.40;0.40;;;;;;;;;;5058115;28;20202;-66
2022/01/17 05:40:01;;;;;;;2.43;1.70;;;;;;;;;;5058306;28;20223;-67
2022/01/17 05:42:28;;;;;;;0.77;0.77;;;;;;;;;;5076305;28;20214;-69
2022/01/17 05:44:56;;;;;;;1.33;1.17;;;;;;;;;;5053179;28;20190;-67
2022/01/17 05:47:25;;;;;;;0.50;0.50;;;;;;;;;;5056544;28;20579;-67
2022/01/17 05:49:52;;;;;;;1.40;0.70;;;;;;;;;;5050033;28;20204;-68
2022/01/17 05:52:20;;;;;;;0.00;0.00;;;;;;;;;;5054754;28;20230;-67
2022/01/17 05:54:47;;;;;;;0.50;0.50;;;;;;;;;;5049783;28;20566;-67
2022/01/17 05:57:14;;;;;;;0.57;0.57;;;;;;;;;;5050014;28;20231;-68
2022/01/17 05:59:42;;;;;;;1.53;1.37;;;;;;;;;;5061021;28;20234;-67
2022/01/17 06:02:09;;;;;;;1.23;1.03;;;;;;;;;;5052596;28;20206;-68
2022/01/17 06:04:38;;;;;;;1.93;1.20;;;;;;;;;;5053624;28;20208;-68
2022/01/17 06:07:06;;;;;;;1.90;1.50;;;;;;;;;;5067365;28;20201;-67
2022/01/17 06:09:34;;;;;;;5.37;2.57;;;;;;;;;;5067699;28;20199;-67
2022/01/17 06:12:02;;;;;;;1.03;0.43;;;;;;;;;;5071613;28;20203;-67
2022/01/17 06:14:31;;;;;;;0.87;0.70;;;;;;;;;;5065179;28;20206;-68
2022/01/17 06:16:58;;;;;;;0.00;0.00;;;;;;;;;;5054287;28;20725;-67
2022/01/17 06:19:26;;;;;;;0.27;0.27;;;;;;;;;;5077469;28;20671;-68
2022/01/17 06:21:55;;;;;;;0.00;0.00;;;;;;;;;;5070539;28;20206;-67
2022/01/17 06:24:23;;;;;;;0.97;0.93;;;;;;;;;;5070548;28;20200;-67
2022/01/17 06:26:51;;;;;;;0.00;0.00;;;;;;;;;;5055657;28;20586;-67
2022/01/17 06:29:19;;;;;;;0.10;0.10;;;;;;;;;;5054786;28;20204;-68
2022/01/17 06:31:46;;;;;;;0.83;0.83;;;;;;;;;;5069963;28;20570;-67
2022/01/17 06:34:14;;;;;;;0.10;0.10;;;;;;;;;;5065963;28;20686;-67
2022/01/17 06:36:42;;;;;;;0.37;0.33;;;;;;;;;;5065118;28;20668;-67
2022/01/17 06:39:11;;;;;;;0.00;0.00;;;;;;;;;;5069120;28;20252;-67
2022/01/17 06:41:39;;;;;;;0.00;0.00;;;;;;;;;;5065167;28;20218;-67
2022/01/17 06:44:06;;;;;;;0.00;0.00;;;;;;;;;;5055091;28;20203;-67
2022/01/17 06:46:34;;;;;;;0.00;0.00;;;;;;;;;;5061453;28;20195;-69
2022/01/17 06:49:01;;;;;;;0.10;0.10;;;;;;;;;;5054748;28;20233;-67
2022/01/17 06:51:29;;;;;;;0.03;0.03;;;;;;;;;;5054053;28;20205;-67
2022/01/17 06:53:56;;;;;;;0.40;0.20;;;;;;;;;;5080852;28;20201;-66
2022/01/17 06:56:25;;;;;;;1.07;0.53;;;;;;;;;;5052946;28;20231;-68
2022/01/17 06:58:52;;;;;;;0.00;0.00;;;;;;;;;;5059863;28;20624;-67
2022/01/17 07:01:21;;;;;;;0.03;0.03;;;;;;;;;;5048069;28;20231;-66
2022/01/17 07:03:48;;;;;;;0.67;0.67;;;;;;;;;;5050392;28;20207;-67
2022/01/17 07:06:16;;;;;;;1.50;1.13;;;;;;;;;;5048426;28;20192;-67
2022/01/17 07:08:45;;;;;;;0.00;0.00;;;;;;;;;;5059797;28;20195;-66
2022/01/17 07:11:13;;;;;;;0.40;0.33;;;;;;;;;;5067646;28;20678;-67
2022/01/17 07:13:41;;;;;;;0.70;0.70;;;;;;;;;;5067561;28;20226;-67
2022/01/17 07:16:09;;;;;;;0.10;0.10;;;;;;;;;;5057244;28;20659;-67
2022/01/17 07:18:36;;;;;;;0.60;0.50;;;;;;;;;;5052020;28;20274;-66
2022/01/17 07:21:04;;;;;;;1.27;0.93;;;;;;;;;;5077456;28;20762;-67
2022/01/17 07:23:31;;;;;;;0.83;0.10;;;;;;;;;;5067359;28;20206;-67
2022/01/17 07:25:59;;;;;;;0.37;0.37;;;;;;;;;;5062146;28;20203;-67
2022/01/17 07:28:27;;;;;;;0.33;0.33;;;;;;;;;;5057641;28;20199;-67
2022/01/17 07:30:56;;;;;;;0.30;0.30;;;;;;;;;;5071667;28;20194;-67
2022/01/17 07:33:26;;;;;;;0.27;0.27;;;;;;;;;;5066759;28;20203;-67
2022/01/17 07:35:53;;;;;;;0.00;0.00;;;;;;;;;;5068550;28;20198;-67
2022/01/17 07:38:21;;;;;;;0.73;0.73;;;;;;;;;;5068461;28;20207;-67
2022/01/17 07:40:48;;;;;;;0.00;0.00;;;;;;;;;;5077431;28;20222;-66
2022/01/17 07:43:16;;;;;;;0.00;0.00;;;;;;;;;;5063125;28;20208;-66
2022/01/17 07:45:55;;;;;;;0.00;0.00;;;;;;;;;;5048466;28;20233;-67
2022/01/17 07:48:55;;;;;;;0.10;0.10;;;;;;;;;;5064255;28;20193;-67
2022/01/17 07:51:23;;;;;;;0.00;0.00;;;;;;;;;;5056374;28;20287;-67
2022/01/17 07:53:51;;;;;;;0.30;0.30;;;;;;;;;;5048534;28;20659;-67
2022/01/17 07:56:18;;;;;;;0.10;0.10;;;;;;;;;;5047884;28;20503;-67
2022/01/17 07:58:45;;;;;;;1.03;0.50;;;;;;;;;;5050734;28;20203;-68
2022/01/17 08:01:13;;;;;;;0.13;0.13;;;;;;;;;;5050677;28;20242;-68
2022/01/17 08:03:42;;;;;;;0.00;0.00;;;;;;;;;;5048998;28;20199;-68
2022/01/17 08:06:10;;;;;;;0.00;0.00;;;;;;;;;;5059503;28;20205;-67
2022/01/17 08:08:38;;;;;;;0.00;0.00;;;;;;;;;;5058748;28;20214;-65
2022/01/17 08:11:06;;;;;;;0.03;0.03;;;;;;;;;;5058448;28;20203;-67
2022/01/17 08:13:33;;;;;;;2.23;1.60;;;;;;;;;;5067687;28;20211;-66
2022/01/17 08:16:02;;;;;;;0.00;0.00;;;;;;;;;;5062765;28;20226;-67
2022/01/17 08:18:30;;;;;;;0.30;0.30;;;;;;;;;;5063231;28;20535;-67
2022/01/17 08:20:59;;;;;;;0.53;0.43;;;;;;;;;;5057557;28;20226;-65
2022/01/17 08:23:26;;;;;;;0.73;0.37;;;;;;;;;;5051171;28;20253;-67
2022/01/17 08:25:54;;;;;;;0.00;0.00;;;;;;;;;;5057268;28;20203;-69
2022/01/17 08:28:21;;;;;;;0.10;0.10;;;;;;;;;;5048057;28;20210;-67
2022/01/17 08:30:49;;;;;;;0.10;0.10;;;;;;;;;;5053513;28;20202;-67
2022/01/17 08:33:16;;;;;;;0.43;0.30;;;;;;;;;;5051519;28;20203;-67
2022/01/17 08:35:44;;;;;;;0.00;0.00;;;;;;;;;;5067584;28;20199;-66
2022/01/17 08:38:13;;;;;;;0.10;0.10;;;;;;;;;;5060883;28;20555;-65
2022/01/17 08:40:40;;;;;;;0.00;0.00;;;;;;;;;;5060409;28;20226;-66
2022/01/17 08:43:08;;;;;;;0.10;0.10;;;;;;;;;;5057892;28;20210;-67
2022/01/17 08:45:36;;;;;;;0.00;0.00;;;;;;;;;;5057596;28;20199;-66
2022/01/17 08:48:04;;;;;;;0.00;0.00;;;;;;;;;;5058995;28;20203;-66
2022/01/17 08:50:32;;;;;;;0.40;0.20;;;;;;;;;;5059042;28;20565;-65
2022/01/17 08:53:00;;;;;;;0.00;0.00;;;;;;;;;;5059262;28;20196;-67
2022/01/17 08:55:28;;;;;;;0.00;0.00;;;;;;;;;;5055422;28;20199;-66
2022/01/17 08:57:58;;;;;;;0.00;0.00;;;;;;;;;;5054374;28;20198;-67
2022/01/17 09:00:25;;;;;;;0.57;0.10;;;;;;;;;;5060141;28;20230;-66
2022/01/17 09:02:52;;;;;;;1.43;1.33;;;;;;;;;;5055451;28;20214;-66
2022/01/17 09:05:20;;;;;;;3.97;3.30;;;;;;;;;;5056805;28;20278;-66
2022/01/17 09:07:47;;;;;;;0.10;0.10;;;;;;;;;;5044693;28;20564;-68
2022/01/17 09:10:14;;;;;;;0.00;0.00;;;;;;;;;;5045215;28;20214;-66
2022/01/17 09:12:43;;;;;;;0.10;0.10;;;;;;;;;;5049951;28;20675;-67
2022/01/17 09:15:13;;;;;;;0.00;0.00;;;;;;;;;;5044900;28;20214;-66
2022/01/17 09:17:40;;;;;;;1.33;0.20;;;;;;;;;;5046570;28;20645;-66
2022/01/17 09:20:08;;;;;;;0.00;0.00;;;;;;;;;;5043911;28;20227;-66
2022/01/17 09:22:35;;;;;;;0.00;0.00;;;;;;;;;;5044552;28;20207;-66
2022/01/17 09:25:05;;;;;;;0.50;0.50;;;;;;;;;;5046642;28;20203;-67
2022/01/17 09:27:33;;;;;;;0.00;0.00;;;;;;;;;;5050064;28;20316;-67
2022/01/17 09:30:01;;;;;;;0.10;0.10;;;;;;;;;;5043792;28;20925;-65
2022/01/17 09:32:29;;;;;;;0.17;0.17;;;;;;;;;;5044548;28;20199;-66
2022/01/17 09:34:56;;;;;;;1.00;0.47;;;;;;;;;;5044478;28;20658;-66
2022/01/17 09:37:23;;;;;;;0.40;0.40;;;;;;;;;;5044243;28;20210;-67
2022/01/17 09:39:51;;;;;;;0.10;0.10;;;;;;;;;;5045699;28;20234;-68
2022/01/17 09:42:18;;;;;;;0.00;0.00;;;;;;;;;;5044394;28;20893;-66
2022/01/17 09:44:45;;;;;;;0.00;0.00;;;;;;;;;;5046615;28;20210;-68
2022/01/17 09:47:15;;;;;;;0.17;0.17;;;;;;;;;;5049461;28;20198;-66
2022/01/17 09:49:43;;;;;;;0.10;0.10;;;;;;;;;;5043989;28;20663;-66
2022/01/17 09:55:00;;;;;;;0.00;0.00;;;;;;;;;;5043542;28;20204;-69
2022/01/17 09:57:28;;;;;;;0.00;0.00;;;;;;;;;;5047295;28;20677;-68
2022/01/17 09:59:57;;;;;;;0.00;0.00;;;;;;;;;;5058832;28;20188;-67
2022/01/17 10:02:26;;;;;;;0.00;0.00;;;;;;;;;;5060658;28;20202;-68
2022/01/17 10:04:53;;;;;;;0.13;0.13;;;;;;;;;;5063900;28;20195;-68
2022/01/17 10:07:20;;;;;;;0.13;0.13;;;;;;;;;;5054798;28;20207;-68
2022/01/17 10:09:56;;;;;;;0.00;0.00;;;;;;;;;;5055687;28;20203;-67
2022/01/17 10:12:24;;;;;;;1.60;0.20;;;;;;;;;;5049624;28;20671;-67
2022/01/17 10:15:00;;;;;;;0.00;0.00;;;;;;;;;;5058734;28;20188;-68
2022/01/17 10:20:25;;;;;;;0.10;0.10;;;;;;;;;;5062158;27;20572;-68
2022/01/17 10:23:09;;;;;;;0.00;0.00;;;;;;;;;;5056552;28;20286;-68
2022/01/17 10:25:51;;;;;;;0.00;0.00;;;;;;;;;;5064310;28;20205;-67
2022/01/17 10:28:42;;;;;;;0.00;0.00;;;;;;;;;;5056053;28;20571;-67
2022/01/17 10:34:53;;;;;;;0.20;0.20;;;;;;;;;;5068831;28;20202;-69
2022/01/17 10:37:13;;;;;;;0.30;0.30;;;;;;;;;;5071200;28;20217;-67
2022/01/17 10:39:52;;;;;;;0.00;0.00;;;;;;;;;;5065749;28;20203;-67
2022/01/17 10:42:30;;;;;;;0.00;0.00;;;;;;;;;;5052895;28;20237;-68
2022/01/17 10:45:02;;;;;;;8.57;1.10;;;;;;;;;;5054722;28;20207;-68
2022/01/17 10:47:30;;;;;;;0.03;0.00;;;;;;;;;;5054579;28;20231;-67
2022/01/17 10:49:59;;;;;;;0.77;0.10;;;;;;;;;;5059825;28;20234;-68
2022/01/17 10:52:35;;;;;;;0.00;0.00;;;;;;;;;;5055734;28;20558;-66
2022/01/17 10:55:05;;;;;;;0.00;0.00;;;;;;;;;;5058589;28;20606;-71
2022/01/17 10:57:39;;;;;;;0.93;0.03;;;;;;;;;;5054854;28;20332;-68
2022/01/17 11:00:08;;;;;;;0.00;0.00;;;;;;;;;;5053219;28;20195;-67
2022/01/17 11:02:36;;;;;;;0.00;0.00;;;;;;;;;;5054229;28;20620;-67
2022/01/17 11:05:04;;;;;;;0.00;0.00;;;;;;;;;;5052957;28;20207;-67
2022/01/17 11:07:32;;;;;;;0.30;0.30;;;;;;;;;;5053781;28;20202;-67
2022/01/17 11:10:07;;;;;;;0.00;0.00;;;;;;;;;;5054158;28;20863;-68
2022/01/17 11:12:35;;;;;;;0.33;0.27;;;;;;;;;;5054310;28;20199;-67
2022/01/17 11:15:03;;;;;;;0.00;0.00;;;;;;;;;;5054125;28;20211;-67
2022/01/17 11:17:35;;;;;;;0.00;0.00;;;;;;;;;;5053991;28;20199;-67
2022/01/17 11:20:07;;;;;;;0.63;0.30;;;;;;;;;;5053262;28;21522;-65
2022/01/17 11:22:35;;;;;;;0.43;0.43;;;;;;;;;;5053576;28;20238;-70
2022/01/17 11:25:05;;;;;;;2.07;1.97;;;;;;;;;;5063240;28;20223;-69
2022/01/17 11:27:33;;;;;;;0.27;0.20;;;;;;;;;;5055907;28;20579;-68
2022/01/17 11:30:01;;;;;;;0.00;0.00;;;;;;;;;;5050107;28;20378;-68
2022/01/17 11:32:29;;;;;;;0.00;0.00;;;;;;;;;;5040869;28;20569;-70
2022/01/17 11:34:58;;;;;;;0.00;0.00;;;;;;;;;;5041053;28;20915;-69
2022/01/17 11:37:27;;;;;;;0.00;0.00;;;;;;;;;;5041143;28;20777;-69
2022/01/17 11:39:56;;;;;;;0.20;0.20;;;;;;;;;;5041796;28;20286;-68
2022/01/17 11:42:35;;;;;;;0.00;0.00;;;;;;;;;;5041457;28;20199;-68
2022/01/17 11:45:05;;;;;;;0.33;0.33;;;;;;;;;;5042537;28;20207;-68
2022/01/17 11:47:48;;;;;;;1.13;0.57;;;;;;;;;;5042331;28;20192;-69
2022/01/17 11:50:35;;;;;;;0.00;0.00;;;;;;;;;;5034486;28;20235;-70
2022/01/17 11:53:23;;;;;;;0.20;0.20;;;;;;;;;;5036694;28;20207;-68
2022/01/17 11:55:51;;;;;;;0.50;0.37;;;;;;;;;;5040504;28;20302;-68
2022/01/17 11:58:22;;;;;;;0.20;0.20;;;;;;;;;;5041431;28;20196;-70
2022/01/17 12:00:51;;;;;;;0.00;0.00;;;;;;;;;;5040625;28;20596;-69
2022/01/17 12:03:19;;;;;;;0.00;0.00;;;;;;;;;;5041641;28;20191;-69
2022/01/17 12:05:46;;;;;;;0.00;0.00;;;;;;;;;;5042112;28;20204;-69
2022/01/17 12:08:20;;;;;;;0.10;0.10;;;;;;;;;;5043071;28;20740;-68
2022/01/17 12:10:59;;;;;;;0.10;0.10;;;;;;;;;;5048980;28;20246;-68
2022/01/17 12:13:40;;;;;;;0.00;0.00;;;;;;;;;;5043884;28;20196;-69
2022/01/17 12:16:29;;;;;;;0.00;0.00;;;;;;;;;;5042328;28;20227;-71
2022/01/17 12:19:05;;;;;;;0.00;0.00;;;;;;;;;;5035046;28;20324;-73
2022/01/17 12:21:33;;;;;;;0.57;0.27;;;;;;;;;;5042857;28;20237;-72
2022/01/17 12:24:20;;;;;;;0.00;0.00;;;;;;;;;;5041945;28;20289;-72
2022/01/17 12:27:02;;;;;;;0.00;0.00;;;;;;;;;;5040906;28;20203;-71
2022/01/17 12:29:37;;;;;;;0.00;0.00;;;;;;;;;;5040545;28;20553;-71
2022/01/17 12:32:05;;;;;;;0.00;0.00;;;;;;;;;;5042829;28;20218;-72
2022/01/17 12:34:41;;;;;;;0.00;0.00;;;;;;;;;;5039493;28;20208;-71
2022/01/17 12:37:23;;;;;;;0.43;0.43;;;;;;;;;;5039619;28;20203;-71
2022/01/17 12:39:51;;;;;;;0.00;0.00;;;;;;;;;;5039608;28;20199;-71
2022/01/17 12:42:18;;;;;;;0.00;0.00;;;;;;;;;;5040054;28;20788;-71
2022/01/17 12:44:47;;;;;;;0.23;0.13;;;;;;;;;;5042104;28;20214;-71
2022/01/17 12:47:15;;;;;;;0.10;0.10;;;;;;;;;;5038640;28;22252;-71
2022/01/17 12:49:43;;;;;;;0.00;0.00;;;;;;;;;;5039716;28;20374;-71
2022/01/17 12:52:12;;;;;;;0.43;0.30;;;;;;;;;;5040872;28;22367;-71
2022/01/17 12:54:39;;;;;;;0.00;0.00;;;;;;;;;;5040674;28;20576;-71
2022/01/17 12:57:07;;;;;;;0.00;0.00;;;;;;;;;;5040445;28;20207;-71
2022/01/17 12:59:35;;;;;;;0.00;0.00;;;;;;;;;;5040279;28;20736;-71
2022/01/17 13:02:04;;;;;;;0.00;0.00;;;;;;;;;;5042185;28;20236;-72
2022/01/17 13:04:32;;;;;;;0.00;0.00;;;;;;;;;;5039789;28;20699;-72
2022/01/17 13:07:01;;;;;;;0.00;0.00;;;;;;;;;;5037554;28;20198;-72
2022/01/17 13:09:29;;;;;;;0.00;0.00;;;;;;;;;;5040198;28;20231;-72
2022/01/17 13:12:00;;;;;;;0.00;0.00;;;;;;;;;;5040489;28;21669;-71
2022/01/17 13:14:27;;;;;;;2.77;0.30;;;;;;;;;;5041307;28;20723;-74
2022/01/17 13:16:55;;;;;;;0.00;0.00;;;;;;;;;;5040765;28;20204;-70
2022/01/17 13:19:24;;;;;;;0.00;0.00;;;;;;;;;;5044212;28;20236;-72
2022/01/17 13:21:51;;;;;;;8.70;0.97;;;;;;;;;;5044298;28;20634;-72
2022/01/17 13:24:31;;;;;;;11.23;0.53;;;;;;;;;;5040209;28;20217;-72
2022/01/17 13:27:00;;;;;;;0.00;0.00;;;;;;;;;;5041034;28;20195;-71
2022/01/17 13:29:28;;;;;;;0.00;0.00;;;;;;;;;;5049555;28;20314;-70
2022/01/17 13:31:55;;;;;;;0.30;0.30;;;;;;;;;;5046678;28;20286;-72
2022/01/17 13:34:24;;;;;;;0.00;0.00;;;;;;;;;;5049312;28;20196;-71
2022/01/17 13:36:53;;;;;;;0.00;0.00;;;;;;;;;;5046708;28;20196;-74
2022/01/17 13:39:21;;;;;;;0.00;0.00;;;;;;;;;;5046917;28;20878;-76
2022/01/17 13:41:50;;;;;;;0.00;0.00;;;;;;;;;;5036910;28;20548;-73
2022/01/17 13:44:22;;;;;;;0.00;0.00;;;;;;;;;;5044082;28;20214;-73
2022/01/17 13:46:58;;;;;;;0.00;0.00;;;;;;;;;;5047105;28;20199;-72
2022/01/17 13:49:27;;;;;;;0.77;0.73;;;;;;;;;;5046229;28;20231;-68
2022/01/17 13:51:54;;;;;;;0.00;0.00;;;;;;;;;;5041814;28;20199;-68
2022/01/17 13:54:25;;;;;;;0.00;0.00;;;;;;;;;;5037589;28;20230;-68
2022/01/17 13:56:53;;;;;;;0.00;0.00;;;;;;;;;;5038273;28;20222;-69
2022/01/17 13:59:23;;;;;;;0.00;0.00;;;;;;;;;;5037229;28;20872;-70
2022/01/17 14:01:51;;;;;;;0.00;0.00;;;;;;;;;;5042111;28;20207;-69
2022/01/17 14:04:19;;;;;;;0.00;0.00;;;;;;;;;;5044877;28;20210;-70
2022/01/17 14:06:48;;;;;;;1.03;0.83;;;;;;;;;;5037357;28;20896;-71
2022/01/17 14:09:16;;;;;;;0.00;0.00;;;;;;;;;;5038019;28;20204;-69
2022/01/17 14:11:46;;;;;;;0.00;0.00;;;;;;;;;;5038468;28;20223;-72
2022/01/17 14:14:17;;;;;;;0.00;0.00;;;;;;;;;;5037487;28;20202;-68
2022/01/17 14:16:44;;;;;;;0.00;0.00;;;;;;;;;;5039193;28;20332;-69
2022/01/17 14:19:12;;;;;;;0.00;0.00;;;;;;;;;;5038000;28;20223;-66
2022/01/17 14:21:41;;;;;;;0.00;0.00;;;;;;;;;;5041342;28;20210;-66
2022/01/17 14:24:17;;;;;;;0.00;0.00;;;;;;;;;;5031185;28;20706;-66
2022/01/17 14:26:48;;;;;;;1.70;0.17;;;;;;;;;;5023251;28;20207;-68
2022/01/17 14:29:16;;;;;;;0.00;0.00;;;;;;;;;;5022012;28;20276;-66
2022/01/17 14:31:45;;;;;;;0.00;0.00;;;;;;;;;;5024762;28;21355;-67
2022/01/17 14:34:14;;;;;;;0.00;0.00;;;;;;;;;;5023716;28;20203;-67
2022/01/17 14:36:41;;;;;;;0.00;0.00;;;;;;;;;;5022950;28;20206;-67
2022/01/17 14:39:10;;;;;;;0.00;0.00;;;;;;;;;;5047160;28;20199;-67
2022/01/17 14:41:41;;;;;;;0.00;0.00;;;;;;;;;;5046079;28;20207;-67
2022/01/17 14:44:12;;;;;;;0.00;0.00;;;;;;;;;;5043910;28;20211;-66
2022/01/17 14:46:44;;;;;;;0.00;0.00;;;;;;;;;;5038721;28;20211;-65
2022/01/17 14:49:14;;;;;;;0.00;0.00;;;;;;;;;;5042903;28;20624;-67
2022/01/17 14:51:45;;;;;;;0.00;0.00;;;;;;;;;;5039094;28;20223;-68
2022/01/17 14:54:16;;;;;;;0.00;0.00;;;;;;;;;;5040245;28;20188;-68
2022/01/17 14:59:47;;;;;;;0.00;0.00;;;;;;;;;;5042597;28;20211;-68
2022/01/17 15:02:22;;;;;;;0.00;0.00;;;;;;;;;;5042662;28;20214;-68
2022/01/17 15:04:50;;;;;;;0.00;0.00;;;;;;;;;;5042894;28;20290;-69
2022/01/17 15:07:17;;;;;;;0.00;0.00;;;;;;;;;;5044438;28;20206;-68
2022/01/17 15:09:48;;;;;;;0.00;0.00;;;;;;;;;;5044104;28;20227;-68
2022/01/17 15:12:17;;;;;;;0.00;0.00;;;;;;;;;;5038638;28;20290;-69
2022/01/17 15:14:45;;;;;;;0.00;0.00;;;;;;;;;;5040314;28;20200;-68
2022/01/17 15:17:14;;;;;;;0.20;0.20;;;;;;;;;;5039858;28;20295;-67